Time;durP1;ratioP1;P1;durP2;ratioP2;P2;SDS_P1;SDS_P2;PMS_P1;PMS_P2;Temp;Humidity;BMP_temperature;BMP_pressure;BME280_temperature;BME280_humidity;BME280_pressure;Samples;Min_cycle;Max_cycle;Signal;HPM_P1;HPM_P2
2021/04/28 00:00:56;;;;;;;;;;;;;;;21.66;31.25;97776.97;5000437;28;1160;-86
2021/04/28 00:03:21;;;;;;;;;;;;;;;21.73;30.91;97756.94;5016751;28;1144;-87
2021/04/28 00:05:46;;;;;;;;;;;;;;;21.79;30.95;97760.78;5032989;28;1195;-87
2021/04/28 00:08:12;;;;;;;;;;;;;;;21.72;31.11;97757.38;5017539;28;587;-87
2021/04/28 00:10:40;;;;;;;;;;;;;;;21.75;31.10;97754.44;5000084;28;1915;-87
2021/04/28 00:13:05;;;;;;;;;;;;;;;21.64;31.08;97753.97;5017512;28;643;-88
2021/04/28 00:15:32;;;;;;;;;;;;;;;21.57;31.37;97762.69;5016926;28;1300;-87
2021/04/28 00:17:58;;;;;;;;;;;;;;;21.64;31.28;97773.78;4999869;28;1251;-88
2021/04/28 00:20:23;;;;;;;;;;;;;;;21.59;31.25;97774.34;5015005;28;855;-88
2021/04/28 00:22:49;;;;;;;;;;;;;;;21.57;31.26;97776.84;5016616;28;942;-87
2021/04/28 00:25:15;;;;;;;;;;;;;;;21.67;31.14;97780.59;4999944;28;830;-87
2021/04/28 00:27:40;;;;;;;;;;;;;;;21.68;31.22;97777.31;5033374;28;770;-88
2021/04/28 00:30:07;;;;;;;;;;;;;;;21.73;31.05;97778.78;5016264;28;1899;-87
2021/04/28 00:32:36;;;;;;;;;;;;;;;21.63;31.33;97769.38;5015827;28;1297;-88
2021/04/28 00:35:02;;;;;;;;;;;;;;;21.65;31.15;97772.53;5016425;28;1179;-87
2021/04/28 00:37:28;;;;;;;;;;;;;;;21.53;31.08;97771.28;5016979;28;1295;-88
2021/04/28 00:39:54;;;;;;;;;;;;;;;21.53;31.52;97781.81;5016207;28;1177;-87
2021/04/28 00:42:19;;;;;;;;;;;;;;;21.53;31.13;97770.50;5000238;28;1080;-88
2021/04/28 00:44:45;;;;;;;;;;;;;;;21.43;31.60;97766.72;5016318;28;1199;-88
2021/04/28 00:47:10;;;;;;;;;;;;;;;21.43;31.17;97771.59;4998483;28;1357;-86
2021/04/28 00:49:36;;;;;;;;;;;;;;;21.56;31.06;97772.44;4999722;28;1906;-86
2021/04/28 00:52:03;;;;;;;;;;;;;;;21.60;31.11;97770.25;4999953;28;1160;-87
2021/04/28 00:54:28;;;;;;;;;;;;;;;21.53;31.00;97776.16;5016290;28;1328;-87
2021/04/28 00:56:56;;;;;;;;;;;;;;;21.48;30.80;97768.22;5016246;28;1196;-87
2021/04/28 00:59:21;;;;;;;;;;;;;;;21.67;30.88;97764.41;4999830;28;1282;-87
2021/04/28 01:01:47;;;;;;;;;;;;;;;22.09;30.95;97761.47;5015690;28;810;-87
2021/04/28 01:04:16;;;;;;;;;;;;;;;22.31;30.65;97762.38;5001466;28;1195;-87
2021/04/28 01:06:43;;;;;;;;;;;;;;;22.47;30.60;97769.16;4999580;28;1160;-87
2021/04/28 01:09:11;;;;;;;;;;;;;;;22.04;30.38;97759.22;5000970;28;1879;-87
2021/04/28 01:11:37;;;;;;;;;;;;;;;21.96;30.34;97755.00;4999508;28;1333;-87
2021/04/28 01:14:02;;;;;;;;;;;;;;;21.68;30.61;97754.66;5015601;28;1171;-87
2021/04/28 01:16:28;;;;;;;;;;;;;;;21.74;30.83;97764.16;4999423;28;1202;-85
2021/04/28 01:18:55;;;;;;;;;;;;;;;21.63;30.93;97752.38;5015905;28;878;-87
2021/04/28 01:21:20;;;;;;;;;;;;;;;21.65;31.14;97749.88;5015295;28;1134;-87
2021/04/28 01:23:46;;;;;;;;;;;;;;;21.64;31.30;97765.28;5031962;28;1219;-88
2021/04/28 01:26:12;;;;;;;;;;;;;;;21.61;30.87;97760.56;4998000;28;1180;-87
2021/04/28 01:28:40;;;;;;;;;;;;;;;21.71;30.76;97753.75;4999853;28;1969;-87
2021/04/28 01:31:06;;;;;;;;;;;;;;;21.69;30.81;97744.91;5014625;28;1192;-87
2021/04/28 01:33:33;;;;;;;;;;;;;;;21.63;30.96;97741.06;4999059;28;1243;-87
2021/04/28 01:35:59;;;;;;;;;;;;;;;21.49;31.26;97742.28;5014743;28;1185;-87
2021/04/28 01:38:26;;;;;;;;;;;;;;;21.57;30.97;97737.22;5015025;28;1331;-87
2021/04/28 01:40:53;;;;;;;;;;;;;;;21.59;31.33;97746.81;5016693;28;1234;-86
2021/04/28 01:43:18;;;;;;;;;;;;;;;21.57;31.32;97740.84;5015100;28;1306;-86
2021/04/28 01:45:50;;;;;;;;;;;;;;;21.56;31.16;97763.94;5014804;28;1166;-88
2021/04/28 01:48:16;;;;;;;;;;;;;;;21.63;31.17;97763.72;5015407;28;1196;-87
2021/04/28 01:50:43;;;;;;;;;;;;;;;21.61;31.02;97760.56;5015133;28;1953;-87
2021/04/28 01:53:08;;;;;;;;;;;;;;;21.54;31.06;97755.09;5014692;28;1190;-87
2021/04/28 01:55:35;;;;;;;;;;;;;;;21.47;31.51;97758.13;5015083;28;1160;-87
2021/04/28 01:58:19;;;;;;;;;;;;;;;21.45;31.50;97741.63;5019699;28;950;-87
2021/04/28 02:00:44;;;;;;;;;;;;;;;21.58;30.91;97738.78;4997657;28;1268;-85
2021/04/28 02:03:10;;;;;;;;;;;;;;;21.51;31.32;97750.34;5031124;28;1396;-87
2021/04/28 02:05:36;;;;;;;;;;;;;;;21.61;30.83;97754.88;4996935;28;1195;-87
2021/04/28 02:08:01;;;;;;;;;;;;;;;21.56;30.99;97741.28;5014170;28;1195;-86
2021/04/28 02:10:27;;;;;;;;;;;;;;;21.67;31.74;97746.63;5030474;28;1887;-87
2021/04/28 02:12:53;;;;;;;;;;;;;;;22.12;31.07;97735.06;4997235;28;1394;-87
2021/04/28 02:15:26;;;;;;;;;;;;;;;22.45;30.71;97726.31;4999774;28;1228;-86
2021/04/28 02:17:55;;;;;;;;;;;;;;;22.18;30.48;97730.44;4998578;28;1388;-87
2021/04/28 02:20:21;;;;;;;;;;;;;;;21.90;30.63;97731.31;4997539;28;1232;-86
2021/04/28 02:22:55;;;;;;;;;;;;;;;21.58;31.15;97750.13;5000258;28;1246;-87
2021/04/28 02:25:24;;;;;;;;;;;;;;;21.65;30.86;97755.56;4998763;28;1369;-85
2021/04/28 02:27:56;;;;;;;;;;;;;;;21.72;31.18;97760.22;4999231;28;1198;-87
2021/04/28 02:30:23;;;;;;;;;;;;;;;21.74;31.09;97766.22;5013294;28;1961;-85
2021/04/28 02:32:49;;;;;;;;;;;;;;;21.57;31.19;97760.66;5014000;28;1294;-85
2021/04/28 02:35:24;;;;;;;;;;;;;;;21.71;31.30;97765.09;5016240;28;513;-87
2021/04/28 02:38:06;;;;;;;;;;;;;;;21.66;31.20;97767.66;5016397;28;1249;-87
2021/04/28 02:41:01;;;;;;;;;;;;;;;21.56;31.41;97772.44;5021379;28;1168;-86
2021/04/28 02:43:27;;;;;;;;;;;;;;;21.62;31.38;97779.13;4999259;28;1184;-85
2021/04/28 02:46:02;;;;;;;;;;;;;;;21.63;31.47;97785.56;5018375;28;1152;-87
2021/04/28 02:48:30;;;;;;;;;;;;;;;21.58;31.33;97767.09;5033501;28;1879;-86
2021/04/28 02:51:16;;;;;;;;;;;;;;;21.51;31.55;97770.16;5036717;28;981;-87
2021/04/28 02:53:44;;;;;;;;;;;;;;;21.59;31.28;97780.00;5000971;28;1218;-87
2021/04/28 02:56:11;;;;;;;;;;;;;;;21.54;31.50;97783.41;5000695;28;1292;-87
2021/04/28 02:58:38;;;;;;;;;;;;;;;21.64;31.22;97762.47;5017213;28;1273;-87
2021/04/28 03:01:08;;;;;;;;;;;;;;;21.53;31.25;97768.44;5017916;28;1245;-87
2021/04/28 03:03:34;;;;;;;;;;;;;;;21.50;31.18;97771.38;5001045;28;1160;-86
2021/04/28 03:06:08;;;;;;;;;;;;;;;21.54;31.05;97772.06;5018254;28;1325;-87
2021/04/28 03:08:46;;;;;;;;;;;;;;;21.59;31.09;97763.03;5018485;28;1969;-86
2021/04/28 03:11:14;;;;;;;;;;;;;;;21.52;31.00;97764.03;5001042;28;1225;-87
2021/04/28 03:13:40;;;;;;;;;;;;;;;21.43;31.41;97775.22;5016925;28;1148;-86
2021/04/28 03:16:06;;;;;;;;;;;;;;;21.47;31.21;97778.75;5016327;28;1305;-86
2021/04/28 03:18:32;;;;;;;;;;;;;;;21.52;31.19;97780.22;5016685;28;1297;-87
2021/04/28 03:20:58;;;;;;;;;;;;;;;21.50;31.18;97782.69;5017003;28;1238;-87
2021/04/28 03:23:25;;;;;;;;;;;;;;;21.54;30.90;97795.50;5015443;28;934;-86
2021/04/28 03:25:51;;;;;;;;;;;;;;;21.54;30.82;97794.72;5015205;28;1535;-87
2021/04/28 03:28:16;;;;;;;;;;;;;;;21.49;30.82;97798.91;5017135;28;990;-87
2021/04/28 03:30:42;;;;;;;;;;;;;;;21.58;30.69;97801.06;5016094;28;1906;-87
2021/04/28 03:33:08;;;;;;;;;;;;;;;21.43;30.91;97806.34;5015551;28;1203;-83
2021/04/28 03:36:09;;;;;;;;;;;;;;;21.55;30.54;97816.94;5014036;28;1142;-88
2021/04/28 03:38:55;;;;;;;;;;;;;;;21.44;30.73;97812.81;5021665;28;1049;-85
2021/04/28 03:41:22;;;;;;;;;;;;;;;21.54;30.86;97811.72;5016928;28;1089;-87
2021/04/28 03:44:04;;;;;;;;;;;;;;;21.50;31.09;97805.34;5020338;28;1286;-86
2021/04/28 03:46:29;;;;;;;;;;;;;;;21.59;30.53;97797.00;5016492;28;917;-86
2021/04/28 03:48:56;;;;;;;;;;;;;;;21.62;30.62;97801.78;5016774;28;2173;-87
2021/04/28 03:51:24;;;;;;;;;;;;;;;21.61;30.67;97816.38;5017501;28;958;-87
2021/04/28 03:54:10;;;;;;;;;;;;;;;21.54;30.54;97817.38;5022264;28;1093;-86
2021/04/28 03:56:35;;;;;;;;;;;;;;;21.56;30.65;97827.03;5015862;28;905;-86
2021/04/28 03:59:02;;;;;;;;;;;;;;;21.55;30.54;97816.13;5016908;28;1300;-86
2021/04/28 04:01:28;;;;;;;;;;;;;;;21.55;30.71;97827.44;5016816;28;1208;-87
2021/04/28 04:03:54;;;;;;;;;;;;;;;21.61;30.70;97822.06;5016695;28;1342;-87
2021/04/28 04:06:34;;;;;;;;;;;;;;;21.56;30.71;97817.72;5020858;28;691;-87
2021/04/28 04:09:23;;;;;;;;;;;;;;;21.45;30.94;97826.53;5005518;28;1879;-86
2021/04/28 04:11:49;;;;;;;;;;;;;;;21.66;30.66;97830.78;5015001;28;1345;-85
2021/04/28 04:14:23;;;;;;;;;;;;;;;21.56;30.57;97854.53;5000661;28;1478;-85
2021/04/28 04:16:51;;;;;;;;;;;;;;;21.46;30.86;97849.97;5014617;28;853;-85
2021/04/28 04:19:17;;;;;;;;;;;;;;;21.55;30.51;97848.09;5012227;28;1227;-85
2021/04/28 04:22:03;;;;;;;;;;;;;;;21.68;30.40;97850.94;5005438;28;1010;-86
2021/04/28 04:24:49;;;;;;;;;;;;;;;21.47;30.87;97865.72;5018702;28;651;-84
2021/04/28 04:27:15;;;;;;;;;;;;;;;21.49;30.54;97871.72;4997621;28;1165;-86
2021/04/28 04:29:41;;;;;;;;;;;;;;;21.53;30.72;97863.91;5013274;28;1906;-86
2021/04/28 04:32:36;;;;;;;;;;;;;;;21.60;30.33;97855.19;4962004;28;1090;-83
2021/04/28 04:35:34;;;;;;;;;;;;;;;21.61;30.57;97845.50;4999610;28;1207;-83
2021/04/28 04:38:18;;;;;;;;;;;;;;;21.66;30.55;97853.44;5029040;28;678;-84
2021/04/28 04:41:02;;;;;;;;;;;;;;;21.47;30.87;97845.91;5030070;28;677;-84
2021/04/28 04:43:51;;;;;;;;;;;;;;;21.58;30.56;97857.69;5029243;28;1027;-84
2021/04/28 04:46:22;;;;;;;;;;;;;;;21.54;30.75;97857.00;5027988;28;906;-83
2021/04/28 04:48:48;;;;;;;;;;;;;;;21.57;30.79;97856.13;5025309;28;1898;-83
2021/04/28 04:51:13;;;;;;;;;;;;;;;21.49;31.00;97854.72;5009765;28;791;-83
2021/04/28 04:53:39;;;;;;;;;;;;;;;21.56;30.70;97843.22;5042897;28;600;-84
2021/04/28 04:56:04;;;;;;;;;;;;;;;21.66;30.45;97853.44;5010049;28;1298;-83
2021/04/28 04:58:30;;;;;;;;;;;;;;;21.56;30.89;97869.47;5009537;28;1176;-83
2021/04/28 05:00:56;;;;;;;;;;;;;;;21.58;30.56;97874.69;5026803;28;950;-84
2021/04/28 05:03:21;;;;;;;;;;;;;;;21.54;30.62;97879.66;5008545;28;1012;-84
2021/04/28 05:05:46;;;;;;;;;;;;;;;21.45;30.77;97876.66;5025477;28;823;-83
2021/04/28 05:08:12;;;;;;;;;;;;;;;21.56;30.50;97871.53;5025648;28;1272;-83
2021/04/28 05:10:37;;;;;;;;;;;;;;;21.54;30.72;97885.31;5026202;28;1902;-84
2021/04/28 05:13:03;;;;;;;;;;;;;;;21.56;30.71;97888.50;5026252;28;743;-84
2021/04/28 05:15:28;;;;;;;;;;;;;;;21.38;31.03;97882.53;5009600;28;1298;-83
2021/04/28 05:17:57;;;;;;;;;;;;;;;21.52;30.62;97877.28;5024686;28;949;-84
2021/04/28 05:20:23;;;;;;;;;;;;;;;21.47;30.73;97879.88;5010427;28;978;-84
2021/04/28 05:22:48;;;;;;;;;;;;;;;21.49;30.98;97883.81;5026124;28;763;-83
2021/04/28 05:25:37;;;;;;;;;;;;;;;21.50;30.77;97878.94;5001505;28;1099;-83
2021/04/28 05:28:02;;;;;;;;;;;;;;;21.43;30.68;97873.50;5009400;28;1168;-84
2021/04/28 05:30:28;;;;;;;;;;;;;;;21.45;30.75;97869.00;5025189;28;1914;-83
2021/04/28 05:32:53;;;;;;;;;;;;;;;21.49;30.60;97868.88;5008740;28;897;-83
2021/04/28 05:35:19;;;;;;;;;;;;;;;21.45;30.45;97882.31;5009200;28;1524;-85
2021/04/28 05:37:44;;;;;;;;;;;;;;;21.77;30.93;97885.06;5026347;28;575;-83
2021/04/28 05:40:10;;;;;;;;;;;;;;;22.23;30.57;97891.41;5025978;28;623;-84
2021/04/28 05:42:36;;;;;;;;;;;;;;;22.47;30.62;97893.91;5009695;28;1262;-83
2021/04/28 05:45:02;;;;;;;;;;;;;;;22.20;30.79;97885.84;5008537;28;1048;-83
2021/04/28 05:47:28;;;;;;;;;;;;;;;21.74;31.29;97885.94;5008917;28;1284;-84
2021/04/28 05:49:53;;;;;;;;;;;;;;;21.68;31.31;97878.47;4992522;28;1902;-83
2021/04/28 05:52:20;;;;;;;;;;;;;;;21.70;30.90;97879.59;5008924;28;776;-84
2021/04/28 05:54:46;;;;;;;;;;;;;;;21.58;31.58;97877.53;5025099;28;685;-84
2021/04/28 05:57:11;;;;;;;;;;;;;;;21.50;31.54;97878.94;5009201;28;803;-84
2021/04/28 05:59:37;;;;;;;;;;;;;;;21.70;31.00;97882.41;5024622;28;988;-83
2021/04/28 06:02:02;;;;;;;;;;;;;;;21.69;31.34;97869.50;5042334;28;962;-84
2021/04/28 06:04:27;;;;;;;;;;;;;;;21.69;31.37;97863.84;5024697;28;976;-84
2021/04/28 06:06:53;;;;;;;;;;;;;;;21.65;31.14;97874.47;5025613;28;568;-83
2021/04/28 06:09:18;;;;;;;;;;;;;;;21.57;31.50;97881.59;5008107;28;1895;-83
2021/04/28 06:11:44;;;;;;;;;;;;;;;21.55;31.74;97892.56;5008609;28;584;-84
2021/04/28 06:14:10;;;;;;;;;;;;;;;21.62;31.27;97883.88;5007864;28;1357;-84
2021/04/28 06:16:35;;;;;;;;;;;;;;;21.29;31.62;97875.44;5024486;28;967;-83
2021/04/28 06:19:01;;;;;;;;;;;;;;;21.60;31.41;97869.38;5008319;28;1238;-83
2021/04/28 06:21:26;;;;;;;;;;;;;;;21.60;31.48;97875.03;5008953;28;1440;-82
2021/04/28 06:23:52;;;;;;;;;;;;;;;21.60;31.25;97866.53;5008104;28;1306;-82
2021/04/28 06:26:18;;;;;;;;;;;;;;;21.60;31.30;97866.53;5009182;28;1292;-83
2021/04/28 06:28:44;;;;;;;;;;;;;;;21.59;31.48;97864.94;5008049;28;1902;-84
2021/04/28 06:31:09;;;;;;;;;;;;;;;21.62;31.27;97866.91;5008810;28;895;-84
2021/04/28 06:33:35;;;;;;;;;;;;;;;21.55;31.53;97875.56;4991636;28;1226;-83
2021/04/28 06:36:01;;;;;;;;;;;;;;;21.59;31.21;97864.94;5042709;28;682;-83
2021/04/28 06:38:26;;;;;;;;;;;;;;;21.59;31.24;97865.75;5008009;28;1172;-84
2021/04/28 06:40:52;;;;;;;;;;;;;;;21.55;31.21;97870.72;5008517;28;1020;-84
2021/04/28 06:43:17;;;;;;;;;;;;;;;21.56;31.47;97874.34;5007927;28;866;-84
2021/04/28 06:45:43;;;;;;;;;;;;;;;21.63;31.23;97876.97;5024777;28;927;-84
2021/04/28 06:48:09;;;;;;;;;;;;;;;21.62;31.21;97874.59;5024677;28;1052;-84
2021/04/28 06:50:34;;;;;;;;;;;;;;;21.50;31.32;97867.63;5025068;28;1977;-84
2021/04/28 06:53:00;;;;;;;;;;;;;;;21.54;31.24;97880.44;5024697;28;674;-84
2021/04/28 06:55:25;;;;;;;;;;;;;;;21.62;31.31;97885.94;5008752;28;1295;-83
2021/04/28 06:57:55;;;;;;;;;;;;;;;21.53;31.25;97889.38;5007577;28;1311;-84
2021/04/28 07:00:25;;;;;;;;;;;;;;;21.46;31.27;97900.94;5025657;28;901;-85
2021/04/28 07:02:50;;;;;;;;;;;;;;;21.49;31.40;97906.47;5024909;28;1128;-84
2021/04/28 07:05:16;;;;;;;;;;;;;;;21.58;31.11;97920.78;5025046;28;695;-84
2021/04/28 07:07:41;;;;;;;;;;;;;;;21.70;30.70;97916.41;5024644;28;635;-84
2021/04/28 07:10:07;;;;;;;;;;;;;;;21.71;31.10;97918.00;5024211;28;1972;-83
2021/04/28 07:12:33;;;;;;;;;;;;;;;21.61;31.14;97919.09;5007237;28;938;-84
2021/04/28 07:14:58;;;;;;;;;;;;;;;21.69;30.74;97926.16;5008050;28;1169;-84
2021/04/28 07:17:24;;;;;;;;;;;;;;;21.56;31.03;97928.16;5025097;28;1066;-84
2021/04/28 07:19:49;;;;;;;;;;;;;;;21.61;31.16;97924.78;5024356;28;675;-83
2021/04/28 07:22:15;;;;;;;;;;;;;;;21.65;30.91;97931.09;5024953;28;718;-84
2021/04/28 07:24:40;;;;;;;;;;;;;;;21.53;31.24;97941.16;5007264;28;1283;-84
2021/04/28 07:27:06;;;;;;;;;;;;;;;21.56;31.11;97933.81;5007841;28;1111;-84
2021/04/28 07:29:31;;;;;;;;;;;;;;;21.57;31.10;97929.72;5026224;28;1968;-83
2021/04/28 07:32:01;;;;;;;;;;;;;;;21.64;30.90;97929.53;5011993;28;812;-83
2021/04/28 07:34:27;;;;;;;;;;;;;;;21.69;31.03;97937.47;5012482;28;1325;-83
2021/04/28 07:36:52;;;;;;;;;;;;;;;21.55;31.06;97946.34;5028228;28;1160;-84
2021/04/28 07:39:18;;;;;;;;;;;;;;;21.54;31.24;97941.94;5027537;28;945;-84
2021/04/28 07:41:44;;;;;;;;;;;;;;;21.49;31.25;97945.31;5028021;28;897;-84
2021/04/28 07:44:11;;;;;;;;;;;;;;;21.52;31.14;97945.22;5027823;28;926;-84
2021/04/28 07:46:37;;;;;;;;;;;;;;;21.55;30.84;97950.00;5011258;28;830;-84
2021/04/28 07:49:06;;;;;;;;;;;;;;;21.49;31.15;97940.44;4994977;28;1906;-84
2021/04/28 07:51:35;;;;;;;;;;;;;;;21.56;31.16;97950.78;5028357;28;670;-84
2021/04/28 07:54:00;;;;;;;;;;;;;;;21.57;30.84;97946.72;5011230;28;626;-83
2021/04/28 07:56:26;;;;;;;;;;;;;;;21.63;30.97;97949.78;5027630;28;883;-84
2021/04/28 07:58:52;;;;;;;;;;;;;;;21.73;30.51;97943.84;5027131;28;968;-84
2021/04/28 08:01:17;;;;;;;;;;;;;;;21.61;30.74;97949.47;5027944;28;933;-84
2021/04/28 08:03:43;;;;;;;;;;;;;;;21.63;30.73;97953.41;5026922;28;656;-83
2021/04/28 08:06:08;;;;;;;;;;;;;;;21.61;30.69;97947.41;5045478;28;672;-84
2021/04/28 08:08:34;;;;;;;;;;;;;;;21.56;30.95;97945.94;5026885;28;794;-84
2021/04/28 08:10:59;;;;;;;;;;;;;;;21.52;31.00;97944.44;5044906;28;1894;-84
2021/04/28 08:13:25;;;;;;;;;;;;;;;21.66;30.62;97949.72;5009397;28;941;-83
2021/04/28 08:15:50;;;;;;;;;;;;;;;21.65;30.88;97953.75;5028763;28;787;-85
2021/04/28 08:18:16;;;;;;;;;;;;;;;21.74;30.69;97939.75;5013730;28;1297;-86
2021/04/28 08:20:41;;;;;;;;;;;;;;;21.58;30.71;97928.47;5029960;28;842;-84
2021/04/28 08:23:07;;;;;;;;;;;;;;;21.63;30.89;97939.25;5011626;28;771;-85
2021/04/28 08:25:32;;;;;;;;;;;;;;;21.51;30.98;97934.34;5028834;28;906;-85
2021/04/28 08:27:59;;;;;;;;;;;;;;;21.58;30.77;97942.63;5028306;28;938;-84
2021/04/28 08:30:25;;;;;;;;;;;;;;;21.51;30.98;97937.97;4996638;28;1982;-84
2021/04/28 08:32:50;;;;;;;;;;;;;;;21.69;30.66;97934.63;5011456;28;1129;-84
2021/04/28 08:35:16;;;;;;;;;;;;;;;21.52;30.66;97935.94;5045968;28;726;-84
2021/04/28 08:37:46;;;;;;;;;;;;;;;21.53;30.98;97923.38;5011519;28;902;-84
2021/04/28 08:40:12;;;;;;;;;;;;;;;21.63;31.02;97925.09;5027573;28;965;-84
2021/04/28 08:42:38;;;;;;;;;;;;;;;21.56;31.14;97922.47;5027613;28;924;-84
2021/04/28 08:45:04;;;;;;;;;;;;;;;21.66;30.88;97921.41;5011951;28;1318;-84
2021/04/28 08:47:29;;;;;;;;;;;;;;;21.60;30.91;97923.16;5010547;28;1204;-83
2021/04/28 08:49:54;;;;;;;;;;;;;;;21.57;31.20;97918.41;5025903;28;2007;-82
2021/04/28 08:52:20;;;;;;;;;;;;;;;21.68;30.71;97918.91;4993237;28;1295;-82
2021/04/28 08:54:45;;;;;;;;;;;;;;;21.53;30.98;97917.69;5025195;28;907;-82
2021/04/28 08:57:12;;;;;;;;;;;;;;;21.53;31.00;97914.88;4992464;28;954;-82
2021/04/28 08:59:37;;;;;;;;;;;;;;;21.69;30.84;97919.69;5025470;28;880;-80
2021/04/28 09:02:28;;;;;;;;;;;;;;;21.67;30.64;97916.53;5025412;28;622;-82
2021/04/28 09:05:12;;;;;;;;;;;;;;;21.52;31.12;97914.09;5026546;28;564;-82
2021/04/28 09:07:38;;;;;;;;;;;;;;;21.57;30.88;97918.41;5008729;28;852;-82
2021/04/28 09:10:08;;;;;;;;;;;;;;;21.45;31.05;97916.28;5024749;28;1953;-82
2021/04/28 09:12:33;;;;;;;;;;;;;;;21.52;31.33;97922.56;5025199;28;894;-82
2021/04/28 09:14:59;;;;;;;;;;;;;;;21.59;30.83;97921.56;5008662;28;1013;-82
2021/04/28 09:17:24;;;;;;;;;;;;;;;21.65;30.81;97919.78;5008610;28;1247;-82
2021/04/28 09:20:15;;;;;;;;;;;;;;;21.59;30.84;97928.03;5010196;28;725;-82
2021/04/28 09:23:16;;;;;;;;;;;;;;;21.57;31.15;97913.53;5027825;28;668;-82
2021/04/28 09:26:00;;;;;;;;;;;;;;;21.52;31.00;97904.78;5027826;28;825;-82
2021/04/28 09:28:52;;;;;;;;;;;;;;;21.53;31.08;97918.50;4978237;28;1984;-82
2021/04/28 09:31:18;;;;;;;;;;;;;;;21.54;30.79;97914.41;5025075;28;631;-82
2021/04/28 09:33:44;;;;;;;;;;;;;;;21.60;30.71;97909.00;5008256;28;671;-82
2021/04/28 09:36:11;;;;;;;;;;;;;;;21.58;31.09;97914.31;5025423;28;658;-82
2021/04/28 09:38:52;;;;;;;;;;;;;;;21.68;30.80;97913.22;5024953;28;595;-82
2021/04/28 09:41:36;;;;;;;;;;;;;;;21.59;31.11;97918.75;5024854;28;932;-82
2021/04/28 09:44:03;;;;;;;;;;;;;;;21.68;30.58;97901.91;5024050;28;893;-82
2021/04/28 09:46:28;;;;;;;;;;;;;;;21.67;30.78;97910.84;5024320;28;760;-82
2021/04/28 09:49:01;;;;;;;;;;;;;;;21.71;30.64;97908.69;5024334;28;1979;-82
2021/04/28 09:51:33;;;;;;;;;;;;;;;21.57;30.84;97901.41;5024137;28;807;-82
2021/04/28 09:54:28;;;;;;;;;;;;;;;21.57;31.01;97902.22;5007834;28;663;-82
2021/04/28 09:56:53;;;;;;;;;;;;;;;21.64;30.83;97906.06;5020639;28;1155;-82
2021/04/28 09:59:19;;;;;;;;;;;;;;;21.58;30.83;97897.34;5023865;28;842;-82
2021/04/28 10:01:44;;;;;;;;;;;;;;;21.59;30.91;97898.91;5024609;28;623;-82
2021/04/28 10:04:10;;;;;;;;;;;;;;;21.69;30.74;97897.81;5008045;28;739;-82
2021/04/28 10:06:42;;;;;;;;;;;;;;;21.56;31.00;97899.84;5024517;28;655;-82
2021/04/28 10:09:24;;;;;;;;;;;;;;;21.57;30.90;97898.59;5007684;28;1957;-82
2021/04/28 10:11:50;;;;;;;;;;;;;;;21.65;31.03;97897.13;5023971;28;996;-81
2021/04/28 10:14:15;;;;;;;;;;;;;;;21.58;31.02;97891.69;5007253;28;930;-82
2021/04/28 10:16:41;;;;;;;;;;;;;;;21.57;31.09;97902.22;5007227;28;872;-82
2021/04/28 10:19:07;;;;;;;;;;;;;;;21.64;30.68;97889.88;5007347;28;1172;-82
2021/04/28 10:21:32;;;;;;;;;;;;;;;21.64;30.60;97892.72;5024080;28;623;-82
2021/04/28 10:23:58;;;;;;;;;;;;;;;21.67;30.67;97889.00;5023800;28;777;-82
2021/04/28 10:26:23;;;;;;;;;;;;;;;21.59;30.73;97882.72;5023854;28;963;-82
2021/04/28 10:28:48;;;;;;;;;;;;;;;21.70;30.66;97896.56;5023266;28;1981;-82
2021/04/28 10:31:14;;;;;;;;;;;;;;;21.69;30.57;97885.72;5024379;28;973;-82
2021/04/28 10:33:39;;;;;;;;;;;;;;;21.70;30.62;97899.41;5023837;28;694;-82
2021/04/28 10:36:05;;;;;;;;;;;;;;;21.55;31.12;97892.56;5023880;28;758;-82
2021/04/28 10:38:31;;;;;;;;;;;;;;;21.66;30.64;97883.75;5006741;28;838;-82
2021/04/28 10:40:56;;;;;;;;;;;;;;;21.55;30.89;97887.72;5023926;28;950;-82
2021/04/28 10:43:22;;;;;;;;;;;;;;;21.55;30.73;97873.56;5040322;28;863;-82
2021/04/28 10:45:48;;;;;;;;;;;;;;;21.55;30.90;97872.75;5023705;28;1389;-82
2021/04/28 10:48:21;;;;;;;;;;;;;;;21.56;30.98;97863.03;5024173;28;851;-81
2021/04/28 10:50:48;;;;;;;;;;;;;;;21.67;30.92;97869.19;5024917;28;1969;-82
2021/04/28 10:53:20;;;;;;;;;;;;;;;21.71;30.78;97867.03;5007597;28;1264;-83
2021/04/28 10:55:47;;;;;;;;;;;;;;;21.61;30.97;97868.16;5040896;28;873;-82
2021/04/28 10:58:34;;;;;;;;;;;;;;;21.72;30.73;97874.28;5040151;28;911;-82
2021/04/28 11:01:04;;;;;;;;;;;;;;;21.56;30.66;97865.88;5041099;28;709;-82
2021/04/28 11:03:49;;;;;;;;;;;;;;;21.64;30.90;97872.88;5023681;28;729;-82
2021/04/28 11:06:21;;;;;;;;;;;;;;;21.65;30.58;97868.81;5045185;28;647;-82
2021/04/28 11:08:49;;;;;;;;;;;;;;;21.71;30.76;97869.06;5044554;28;694;-82
2021/04/28 11:11:30;;;;;;;;;;;;;;;21.69;30.57;97868.72;5044866;28;958;-82
2021/04/28 11:14:11;;;;;;;;;;;;;;;21.59;30.98;97862.13;5044228;28;940;-82
2021/04/28 11:16:37;;;;;;;;;;;;;;;21.85;30.43;97865.81;5044558;28;691;-82
2021/04/28 11:19:14;;;;;;;;;;;;;;;21.73;30.52;97875.88;5026663;28;831;-82
2021/04/28 11:21:40;;;;;;;;;;;;;;;21.56;31.07;97877.19;5044829;28;889;-82
2021/04/28 11:24:06;;;;;;;;;;;;;;;21.65;30.95;97874.47;5011035;28;867;-82
2021/04/28 11:26:34;;;;;;;;;;;;;;;21.73;30.63;97867.38;5027289;28;1076;-82
2021/04/28 11:28:59;;;;;;;;;;;;;;;21.69;30.60;97869.50;5010579;28;1975;-82
2021/04/28 11:31:45;;;;;;;;;;;;;;;21.64;30.90;97878.56;5027019;28;843;-82
2021/04/28 11:34:29;;;;;;;;;;;;;;;21.73;30.88;97861.72;5043686;28;1014;-82
2021/04/28 11:36:55;;;;;;;;;;;;;;;21.66;30.66;97858.28;5026756;28;887;-82
2021/04/28 11:39:33;;;;;;;;;;;;;;;21.65;30.85;97851.03;5026772;28;672;-82
2021/04/28 11:42:06;;;;;;;;;;;;;;;21.62;30.88;97846.28;5044032;28;958;-82
2021/04/28 11:44:31;;;;;;;;;;;;;;;21.65;30.89;97846.16;5026511;28;977;-82
2021/04/28 11:47:10;;;;;;;;;;;;;;;21.72;30.57;97845.19;5027082;28;690;-82
2021/04/28 11:49:38;;;;;;;;;;;;;;;21.77;30.43;97848.25;5026899;28;1906;-82
2021/04/28 11:52:04;;;;;;;;;;;;;;;21.69;30.43;97855.34;5010014;28;966;-82
2021/04/28 11:54:29;;;;;;;;;;;;;;;21.75;30.55;97856.38;5043556;28;698;-82
2021/04/28 11:56:55;;;;;;;;;;;;;;;21.67;30.98;97857.84;5009788;28;1286;-82
2021/04/28 11:59:26;;;;;;;;;;;;;;;21.61;30.90;97848.31;5026031;28;882;-82
2021/04/28 12:02:03;;;;;;;;;;;;;;;21.69;30.73;97848.91;5010594;28;1459;-82
2021/04/28 12:04:32;;;;;;;;;;;;;;;21.76;30.50;97852.31;5043877;28;636;-82
2021/04/28 12:06:58;;;;;;;;;;;;;;;21.75;30.58;97856.38;5026887;28;675;-82
2021/04/28 12:09:44;;;;;;;;;;;;;;;21.67;30.67;97848.56;5043062;28;1973;-80
2021/04/28 12:12:23;;;;;;;;;;;;;;;21.62;31.04;97858.41;5043581;28;720;-82
2021/04/28 12:14:52;;;;;;;;;;;;;;;21.61;30.83;97844.69;5008406;28;855;-82
2021/04/28 12:17:19;;;;;;;;;;;;;;;21.65;31.00;97846.16;5026219;28;710;-82
2021/04/28 12:19:45;;;;;;;;;;;;;;;21.56;31.18;97831.88;5009286;28;891;-82
2021/04/28 12:22:10;;;;;;;;;;;;;;;21.52;31.12;97846.13;5043643;28;607;-82
2021/04/28 12:24:43;;;;;;;;;;;;;;;21.63;30.84;97836.53;5043157;28;694;-82
2021/04/28 12:27:14;;;;;;;;;;;;;;;21.77;30.40;97828.41;5009557;28;919;-82
2021/04/28 12:29:41;;;;;;;;;;;;;;;21.63;30.83;97830.88;5025436;28;1914;-82
2021/04/28 12:32:07;;;;;;;;;;;;;;;21.60;30.60;97829.72;5026462;28;623;-82
2021/04/28 12:34:33;;;;;;;;;;;;;;;21.60;30.74;97824.06;5025941;28;754;-81
2021/04/28 12:37:08;;;;;;;;;;;;;;;21.59;30.62;97825.31;5026278;28;702;-81
2021/04/28 12:39:33;;;;;;;;;;;;;;;21.69;30.64;97824.19;5025427;28;792;-82
2021/04/28 12:41:59;;;;;;;;;;;;;;;21.62;30.54;97829.28;5042897;28;858;-82
2021/04/28 12:44:24;;;;;;;;;;;;;;;21.67;30.76;97825.91;5025401;28;958;-83
2021/04/28 12:46:50;;;;;;;;;;;;;;;21.66;30.42;97829.97;5025970;28;966;-82
2021/04/28 12:49:16;;;;;;;;;;;;;;;21.72;30.37;97823.31;5025301;28;1910;-81
2021/04/28 12:51:42;;;;;;;;;;;;;;;21.67;30.31;97826.69;5025763;28;691;-82
2021/04/28 12:54:08;;;;;;;;;;;;;;;21.60;30.40;97829.72;5025181;28;730;-82
2021/04/28 12:57:03;;;;;;;;;;;;;;;21.65;30.57;97817.84;5025453;28;874;-82
2021/04/28 12:59:29;;;;;;;;;;;;;;;21.69;30.64;97812.88;4992929;28;1082;-81
2021/04/28 13:01:55;;;;;;;;;;;;;;;21.69;30.75;97818.53;5042835;28;640;-82
2021/04/28 13:04:23;;;;;;;;;;;;;;;21.67;30.75;97826.69;5025492;28;702;-82
2021/04/28 13:06:50;;;;;;;;;;;;;;;21.46;31.09;97821.66;5025430;28;689;-82
2021/04/28 13:09:15;;;;;;;;;;;;;;;21.67;30.51;97820.25;5025017;28;1973;-82
2021/04/28 13:11:44;;;;;;;;;;;;;;;21.66;30.59;97836.44;5042446;28;1038;-82